LTN weather

London Luton Airport
London, England, United Kingdom

Public forecast

Using degrees Celsius for public forecast. Weather courtesy of forecast.io.

METAR (pilot weather report)

Retrieved 2018/12/15 20:20 UTC (27 minutes ago):

EGGW 152020Z AUTO 18008KT 150V210 9999 -RA OVC004 04/04 Q1001

TAF (pilot weather forecast)

Retrieved 2018/12/15 18:00 UTC (3 hours ago):

TAF EGGW 151700Z 1518/1618 15018G28KT 7000 -RA BKN012 BECMG 1518/1521 16010KT 9999 NSW SCT020 TEMPO 1518/1521 4000 RADZ BKN006 PROB30 TEMPO 1518/1520 1200 +RA BKN003 BECMG 1521/1524 22012KT TEMPO 1600/1612 6000 PROB30 1603/1610 2000 BR BKN003